Time;durP1;ratioP1;P1;durP2;ratioP2;P2;SDS_P1;SDS_P2;PMS_P1;PMS_P2;Temp;Humidity;BMP_temperature;BMP_pressure;BME280_temperature;BME280_humidity;BME280_pressure;Samples;Min_cycle;Max_cycle;Signal;HPM_P1;HPM_P2
2023/05/14 00:00:39;;;;;;;30.35;15.30;;;;;;;;;;4981998;28;20143;-72
2023/05/14 00:03:05;;;;;;;24.90;14.50;;;10.30;1.00;;;;;;4972528;28;20034;-72
2023/05/14 00:05:31;;;;;;;25.08;14.90;;;10.30;1.00;;;;;;4977840;28;20209;-72
2023/05/14 00:07:56;;;;;;;25.15;14.68;;;10.40;1.00;;;;;;4994438;28;20081;-72
2023/05/14 00:10:22;;;;;;;23.20;14.52;;;;;;;;;;4986480;28;20176;-73
2023/05/14 00:12:49;;;;;;;27.58;14.60;;;10.50;1.00;;;;;;4979850;28;20117;-73
2023/05/14 00:15:15;;;;;;;25.35;14.32;;;;;;;;;;4989046;28;20089;-72
2023/05/14 00:17:45;;;;;;;22.05;13.77;;;;;;;;;;4976105;28;20045;-72
2023/05/14 00:20:11;;;;;;;21.83;13.93;;;10.40;1.00;;;;;;4996091;28;20038;-72
2023/05/14 00:22:38;;;;;;;25.02;14.35;;;;;;;;;;4975949;28;20163;-72
2023/05/14 00:25:05;;;;;;;23.63;14.27;;;;;;;;;;4987598;28;20043;-72
2023/05/14 00:27:31;;;;;;;24.00;14.15;;;;;;;;;;4981775;28;20049;-72
2023/05/14 00:29:57;;;;;;;28.60;14.68;;;10.40;1.00;;;;;;4987609;28;20042;-72
2023/05/14 00:32:23;;;;;;;25.85;13.85;;;;;;;;;;4980803;28;20423;-72
2023/05/14 00:34:49;;;;;;;23.77;13.63;;;;;;;;;;4983231;28;20042;-72
2023/05/14 00:37:15;;;;;;;23.40;13.10;;;;;;;;;;4981611;28;20039;-72
2023/05/14 00:39:41;;;;;;;22.50;13.38;;;;;;;;;;4980667;28;20045;-72
2023/05/14 00:42:08;;;;;;;20.95;13.38;;;;;;;;;;4989299;28;20299;-72
2023/05/14 00:44:34;;;;;;;23.70;14.35;;;;;;;;;;4980110;28;20382;-72
2023/05/14 00:47:00;;;;;;;24.92;15.05;;;;;;;;;;5000085;28;20043;-72
2023/05/14 00:49:26;;;;;;;30.60;15.57;;;;;;;;;;4981632;28;20052;-72
2023/05/14 00:51:52;;;;;;;18.92;12.50;;;;;;;;;;4985037;28;20042;-72
2023/05/14 00:54:19;;;;;;;23.63;14.88;;;;;;;;;;4988199;28;20043;-72
2023/05/14 00:56:46;;;;;;;26.02;13.85;;;;;;;;;;4989030;28;20069;-72
2023/05/14 00:59:12;;;;;;;24.40;12.95;;;;;;;;;;4988591;28;20499;-72
2023/05/14 01:01:39;;;;;;;23.42;13.35;;;;;;;;;;4989623;28;20069;-72
2023/05/14 01:04:06;;;;;;;25.08;13.57;;;;;;;;;;4977874;28;20467;-73
2023/05/14 01:06:35;;;;;;;20.52;12.40;;;;;;;;;;4980364;28;20499;-73
2023/05/14 01:09:16;;;;;;;21.20;12.93;;;10.20;1.00;;;;;;4975268;28;20515;-72
2023/05/14 01:11:55;;;;;;;22.67;13.30;;;;;;;;;;4997248;28;20453;-72
2023/05/14 01:14:26;;;;;;;19.80;11.73;;;10.30;1.00;;;;;;4993365;28;20400;-72
2023/05/14 01:16:56;;;;;;;20.85;12.95;;;;;;;;;;4993165;28;20435;-73
2023/05/14 01:19:29;;;;;;;25.35;12.93;;;;;;;;;;4991797;28;20109;-72
2023/05/14 01:21:55;;;;;;;26.10;14.13;;;10.30;1.00;;;;;;4991661;28;20042;-72
2023/05/14 01:24:21;;;;;;;36.88;15.65;;;10.10;1.00;;;;;;4997512;28;20084;-73
2023/05/14 01:26:46;;;;;;;29.38;15.80;;;10.10;1.00;;;;;;4992465;28;20037;-72
2023/05/14 01:29:19;;;;;;;28.95;16.33;;;;;;;;;;4982322;28;20042;-72
2023/05/14 01:31:46;;;;;;;28.48;16.50;;;;;;;;;;4987969;28;20496;-72
2023/05/14 01:34:14;;;;;;;29.17;15.55;;;10.50;1.00;;;;;;4983056;28;20078;-72
2023/05/14 01:36:41;;;;;;;32.95;16.27;;;;;;;;;;4974236;28;20575;-73
2023/05/14 01:39:08;;;;;;;26.05;14.15;;;;;;;;;;4992823;28;20060;-72
2023/05/14 01:41:36;;;;;;;26.50;14.80;;;;;;;;;;4997905;28;20041;-72
2023/05/14 01:44:02;;;;;;;26.65;15.85;;;10.30;1.00;;;;;;4983883;28;20651;-72
2023/05/14 01:46:32;;;;;;;28.42;15.75;;;;;;;;;;4988126;28;20141;-72
2023/05/14 01:48:58;;;;;;;34.30;17.88;;;10.30;1.00;;;;;;4972502;28;20042;-73
2023/05/14 01:51:24;;;;;;;30.20;16.23;;;10.30;1.00;;;;;;4985925;28;20408;-73
2023/05/14 01:53:53;;;;;;;37.00;17.40;;;10.30;1.00;;;;;;4988769;28;20035;-72
2023/05/14 01:56:24;;;;;;;29.95;15.48;;;;;;;;;;4991688;28;20034;-73
2023/05/14 01:58:50;;;;;;;24.88;14.98;;;10.20;1.00;;;;;;4985372;28;20046;-73
2023/05/14 02:01:15;;;;;;;26.52;15.18;;;10.30;1.00;;;;;;4985944;28;20092;-72
2023/05/14 02:03:42;;;;;;;28.92;15.63;;;;;;;;;;4983905;28;20129;-72
2023/05/14 02:06:08;;;;;;;24.90;14.40;;;10.20;1.00;;;;;;4987181;28;20504;-72
2023/05/14 02:08:33;;;;;;;26.40;14.73;;;10.40;1.00;;;;;;4996755;28;20041;-72
2023/05/14 02:10:59;;;;;;;29.08;16.38;;;;;;;;;;4990392;28;20038;-72
2023/05/14 02:13:25;;;;;;;29.20;16.10;;;10.20;1.00;;;;;;4990127;28;20411;-72
2023/05/14 02:15:51;;;;;;;28.58;15.70;;;10.60;1.00;;;;;;4989370;28;20034;-72
2023/05/14 02:18:17;;;;;;;33.08;16.70;;;10.20;1.00;;;;;;4977274;28;20138;-72
2023/05/14 02:20:43;;;;;;;32.33;17.15;;;;;;;;;;4997113;28;20190;-72
2023/05/14 02:23:09;;;;;;;30.85;16.92;;;10.20;5.80;;;;;;4999403;28;20455;-72
2023/05/14 02:25:34;;;;;;;29.35;15.82;;;10.20;7.90;;;;;;4990805;28;20050;-72
2023/05/14 02:28:00;;;;;;;32.78;16.73;;;10.10;9.80;;;;;;4990314;28;20030;-72
2023/05/14 02:30:26;;;;;;;31.13;16.67;;;10.10;10.30;;;;;;4985172;28;20031;-72
2023/05/14 02:32:52;;;;;;;31.77;16.70;;;;;;;;;;4968126;28;20030;-72
2023/05/14 02:35:18;;;;;;;30.23;16.63;;;;;;;;;;4989953;28;20065;-73
2023/05/14 02:37:44;;;;;;;36.13;18.80;;;;;;;;;;4986682;28;20117;-72
2023/05/14 02:40:10;;;;;;;28.60;15.98;;;;;;;;;;4982717;28;20504;-72
2023/05/14 02:42:36;;;;;;;40.08;18.08;;;10.10;18.60;;;;;;4989878;28;20053;-72
2023/05/14 02:45:02;;;;;;;34.00;17.15;;;;;;;;;;4990320;28;20038;-72
2023/05/14 02:47:28;;;;;;;29.33;17.05;;;10.20;26.30;;;;;;4992728;28;20101;-72
2023/05/14 02:49:54;;;;;;;31.55;16.52;;;;;;;;;;4989551;28;20038;-72
2023/05/14 02:52:19;;;;;;;30.75;17.02;;;10.50;22.60;;;;;;4995377;28;20211;-72
2023/05/14 02:54:45;;;;;;;36.38;17.67;;;;;;;;;;4994686;28;20572;-72
2023/05/14 02:57:11;;;;;;;31.65;15.95;;;10.40;20.60;;;;;;4990458;28;20117;-72
2023/05/14 02:59:37;;;;;;;36.05;17.83;;;10.20;19.40;;;;;;4989831;28;20121;-72
2023/05/14 03:02:02;;;;;;;28.70;15.98;;;10.30;24.00;;;;;;4980783;28;20408;-72
2023/05/14 03:04:29;;;;;;;33.25;17.00;;;;;;;;;;4977234;28;20069;-72
2023/05/14 03:06:55;;;;;;;31.63;16.35;;;;;;;;;;4991791;28;20149;-72
2023/05/14 03:09:20;;;;;;;39.60;18.13;;;10.50;16.20;;;;;;5000873;28;20116;-72
2023/05/14 03:11:46;;;;;;;30.52;17.00;;;;;;;;;;5003396;28;20161;-72
2023/05/14 03:14:12;;;;;;;35.85;17.27;;;;;;;;;;4990055;28;20044;-72
2023/05/14 03:16:40;;;;;;;32.20;15.63;;;;;;;;;;4997010;28;20042;-72
2023/05/14 03:19:07;;;;;;;31.45;17.20;;;;;;;;;;4990099;28;20268;-72
2023/05/14 03:21:32;;;;;;;31.52;16.75;;;10.30;15.30;;;;;;4993132;28;20046;-72
2023/05/14 03:23:58;;;;;;;38.75;18.40;;;10.30;12.70;;;;;;4995796;28;20093;-70
2023/05/14 03:26:24;;;;;;;29.92;16.27;;;10.10;12.80;;;;;;4989747;28;20042;-70
2023/05/14 03:28:50;;;;;;;31.65;15.93;;;10.30;11.80;;;;;;4990043;28;20576;-72
2023/05/14 03:31:15;;;;;;;36.55;18.10;;;10.20;13.60;;;;;;4991296;28;20121;-71
2023/05/14 03:33:41;;;;;;;32.53;16.85;;;;;;;;;;4996895;28;20121;-71
2023/05/14 03:36:07;;;;;;;31.77;17.83;;;;;;;;;;4971387;28;20391;-71
2023/05/14 03:38:33;;;;;;;33.80;17.45;;;;;;;;;;4974323;28;20053;-71
2023/05/14 03:40:59;;;;;;;49.22;19.67;;;10.10;29.10;;;;;;4978181;28;20489;-71
2023/05/14 03:43:25;;;;;;;29.50;15.82;;;;;;;;;;4961886;28;20061;-72
2023/05/14 03:45:51;;;;;;;28.40;15.63;;;10.50;45.70;;;;;;4968712;28;20038;-71
2023/05/14 03:48:20;;;;;;;34.88;14.93;;;;;;;;;;4984287;28;20065;-71
2023/05/14 03:50:46;;;;;;;29.95;14.48;;;;;;;;;;4988105;28;20084;-71
2023/05/14 03:53:12;;;;;;;25.75;14.88;;;;;;;;;;4988311;28;20121;-71
2023/05/14 03:55:39;;;;;;;29.73;14.48;;;;;;;;;;4988665;28;20192;-71
2023/05/14 03:58:09;;;;;;;39.63;16.50;;;;;;;;;;4984164;28;20039;-71
2023/05/14 04:00:35;;;;;;;28.88;14.10;;;10.60;63.00;;;;;;4997182;28;20053;-71
2023/05/14 04:03:01;;;;;;;32.25;15.50;;;;;;;;;;4989932;28;20054;-71
2023/05/14 04:05:27;;;;;;;27.73;15.13;;;10.60;53.70;;;;;;4987441;28;20034;-71
2023/05/14 04:07:52;;;;;;;25.00;14.57;;;10.50;48.20;;;;;;4984932;28;20061;-71
2023/05/14 04:10:18;;;;;;;27.98;14.02;;;10.60;37.60;;;;;;4988601;28;20052;-70
2023/05/14 04:12:44;;;;;;;31.23;15.23;;;10.70;33.10;;;;;;4986775;28;20125;-70
2023/05/14 04:15:10;;;;;;;36.45;16.08;;;;;;;;;;4992018;28;20729;-70
2023/05/14 04:17:36;;;;;;;29.70;15.75;;;10.50;31.80;;;;;;4989109;28;20052;-70
2023/05/14 04:20:02;;;;;;;29.60;16.42;;;;;;;;;;4990033;28;20113;-71
2023/05/14 04:22:28;;;;;;;34.28;15.15;;;;;;;;;;4989121;28;20574;-70
2023/05/14 04:24:53;;;;;;;28.45;15.77;;;10.50;31.10;;;;;;4988525;28;20097;-71
2023/05/14 04:27:20;;;;;;;28.25;14.95;;;10.70;43.00;;;;;;4996672;28;20042;-70
2023/05/14 04:29:46;;;;;;;35.03;17.90;;;10.80;37.10;;;;;;4997395;28;20034;-71
2023/05/14 04:32:12;;;;;;;30.58;16.40;;;10.70;50.60;;;;;;4989287;28;20038;-71
2023/05/14 04:34:38;;;;;;;28.25;15.73;;;;;;;;;;4991052;28;20053;-71
2023/05/14 04:37:04;;;;;;;29.27;15.00;;;10.70;34.20;;;;;;4961090;28;20563;-71
2023/05/14 04:39:30;;;;;;;33.72;15.00;;;10.60;34.70;;;;;;4990081;28;20035;-71
2023/05/14 04:41:55;;;;;;;29.38;14.25;;;10.80;39.60;;;;;;5002165;28;20038;-71
2023/05/14 04:44:21;;;;;;;24.13;13.63;;;;;;;;;;4995758;28;20122;-71
2023/05/14 04:46:47;;;;;;;31.33;15.27;;;;;;;;;;4994218;28;20081;-71
2023/05/14 04:49:13;;;;;;;34.08;14.35;;;10.80;47.40;;;;;;4991552;28;20038;-71
2023/05/14 04:51:40;;;;;;;29.17;13.38;;;;;;;;;;4992585;28;20048;-71
2023/05/14 04:54:05;;;;;;;26.73;12.63;;;10.90;48.60;;;;;;4992403;28;20162;-71
2023/05/14 04:56:31;;;;;;;28.00;13.13;;;10.90;45.20;;;;;;4993436;28;20082;-71
2023/05/14 04:58:57;;;;;;;24.92;13.07;;;11.00;38.90;;;;;;4992604;28;20046;-71
2023/05/14 05:01:23;;;;;;;28.58;14.18;;;;;;;;;;4999153;28;20044;-71
2023/05/14 05:03:49;;;;;;;25.40;13.13;;;;;;;;;;4992339;28;20093;-71
2023/05/14 05:06:15;;;;;;;36.03;15.40;;;10.60;29.90;;;;;;4976123;28;20074;-71
2023/05/14 05:08:41;;;;;;;26.13;13.82;;;;;;;;;;4991455;28;20071;-71
2023/05/14 05:11:07;;;;;;;27.27;14.35;;;;;;;;;;4990478;28;20042;-71
2023/05/14 05:13:33;;;;;;;33.72;14.60;;;;;;;;;;4982276;28;20097;-71
2023/05/14 05:15:59;;;;;;;35.67;15.93;;;11.20;15.70;;;;;;4990658;28;20038;-71
2023/05/14 05:18:24;;;;;;;30.67;15.45;;;11.20;15.60;;;;;;4991598;28;20381;-71
2023/05/14 05:20:50;;;;;;;24.27;13.80;;;11.40;12.70;;;;;;4991879;28;20034;-71
2023/05/14 05:23:16;;;;;;;28.80;14.82;;;11.20;28.80;;;;;;4991263;28;20045;-71
2023/05/14 05:25:41;;;;;;;26.55;14.63;;;11.40;26.80;;;;;;4975701;28;20091;-71
2023/05/14 05:28:07;;;;;;;27.83;15.23;;;11.20;23.20;;;;;;4973400;28;20066;-71
2023/05/14 05:30:33;;;;;;;24.52;14.82;;;;;;;;;;4985812;28;20050;-71
2023/05/14 05:32:59;;;;;;;26.55;14.85;;;11.10;33.90;;;;;;4996847;28;20042;-71
2023/05/14 05:35:24;;;;;;;26.17;14.50;;;11.30;30.50;;;;;;4986515;28;20041;-71
2023/05/14 05:37:50;;;;;;;29.60;14.80;;;;;;;;;;4978027;28;20238;-71
2023/05/14 05:40:16;;;;;;;22.67;12.82;;;11.40;47.60;;;;;;4981570;28;20042;-71
2023/05/14 05:42:42;;;;;;;29.10;14.25;;;11.60;47.30;;;;;;4982080;28;20043;-71
2023/05/14 05:45:08;;;;;;;23.23;12.98;;;11.50;48.00;;;;;;4983328;28;20465;-71
2023/05/14 05:47:34;;;;;;;31.17;14.05;;;11.30;39.40;;;;;;4978237;28;20042;-70
2023/05/14 05:49:59;;;;;;;22.73;13.80;;;11.70;36.20;;;;;;4992491;28;20104;-71
2023/05/14 05:52:25;;;;;;;23.35;13.43;;;11.80;53.90;;;;;;4992519;28;20049;-70
2023/05/14 05:54:51;;;;;;;25.73;12.65;;;11.60;47.80;;;;;;4991214;28;20054;-70
2023/05/14 05:57:16;;;;;;;22.75;12.30;;;12.40;45.80;;;;;;4999444;28;20046;-71
2023/05/14 05:59:42;;;;;;;26.52;12.30;;;11.70;20.20;;;;;;4991118;28;20496;-70
2023/05/14 06:02:08;;;;;;;21.50;10.25;;;12.20;43.90;;;;;;4990541;28;20517;-70
2023/05/14 06:04:34;;;;;;;18.10;10.88;;;12.00;24.80;;;;;;4991302;28;20041;-70
2023/05/14 06:06:59;;;;;;;21.08;11.77;;;12.10;17.00;;;;;;4991879;28;20496;-70
2023/05/14 06:09:25;;;;;;;19.38;11.63;;;12.10;35.40;;;;;;4990766;28;20674;-70
2023/05/14 06:11:50;;;;;;;20.98;12.60;;;11.80;47.60;;;;;;4978981;28;20497;-70
2023/05/14 06:14:16;;;;;;;21.23;11.32;;;12.10;49.50;;;;;;4978534;28;20053;-70
2023/05/14 06:16:42;;;;;;;18.73;10.05;;;11.70;23.30;;;;;;4990861;28;20042;-70
2023/05/14 06:19:07;;;;;;;24.05;10.73;;;12.20;11.90;;;;;;4987996;28;20485;-70
2023/05/14 06:21:34;;;;;;;20.70;9.63;;;;;;;;;;4990929;28;20495;-70
2023/05/14 06:23:59;;;;;;;17.13;9.00;;;12.40;6.80;;;;;;4990250;28;20096;-70
2023/05/14 06:26:25;;;;;;;21.80;8.27;;;12.30;10.60;;;;;;4990529;28;20457;-70
2023/05/14 06:28:51;;;;;;;18.10;8.32;;;12.40;3.70;;;;;;4990017;28;20181;-70
2023/05/14 06:31:17;;;;;;;17.92;7.93;;;12.60;18.10;;;;;;4991954;28;20401;-70
2023/05/14 06:33:44;;;;;;;22.70;8.68;;;12.70;1.00;;;;;;4990756;28;20381;-70
2023/05/14 06:36:10;;;;;;;23.38;8.65;;;12.40;1.00;;;;;;4990356;28;20044;-70
2023/05/14 06:38:35;;;;;;;15.15;9.05;;;13.00;1.00;;;;;;4991652;28;20201;-70
2023/05/14 06:41:01;;;;;;;15.90;8.20;;;12.70;1.00;;;;;;4974158;28;20134;-70
2023/05/14 06:43:27;;;;;;;23.23;8.35;;;12.50;1.00;;;;;;4990657;28;20125;-70
2023/05/14 06:45:53;;;;;;;20.60;8.88;;;12.70;1.00;;;;;;4990441;28;20050;-70
2023/05/14 06:48:19;;;;;;;21.48;10.10;;;;;;;;;;4990170;28;20201;-69
2023/05/14 06:50:46;;;;;;;20.77;9.52;;;;;;;;;;4990551;28;20035;-70
2023/05/14 06:53:12;;;;;;;18.73;9.07;;;12.80;1.00;;;;;;4991740;28;20034;-70
2023/05/14 06:55:38;;;;;;;20.75;8.80;;;13.20;1.00;;;;;;4992384;28;20034;-70
2023/05/14 06:58:07;;;;;;;17.65;8.68;;;12.90;1.00;;;;;;4990251;28;20453;-70
2023/05/14 07:00:33;;;;;;;17.13;9.30;;;13.10;99.90;;;;;;4984407;28;20082;-70
2023/05/14 07:02:58;;;;;;;20.17;8.90;;;12.90;99.90;;;;;;4986271;28;20070;-70
2023/05/14 07:05:25;;;;;;;16.63;8.68;;;13.00;1.00;;;;;;4984060;28;20042;-70
2023/05/14 07:07:50;;;;;;;19.58;9.30;;;13.30;99.90;;;;;;4970147;28;20051;-70
2023/05/14 07:10:16;;;;;;;16.63;8.07;;;13.20;99.90;;;;;;4988774;28;20408;-70
2023/05/14 07:12:42;;;;;;;17.00;7.88;;;13.90;99.90;;;;;;4993751;28;20405;-70
2023/05/14 07:15:08;;;;;;;18.55;8.43;;;13.30;99.90;;;;;;4976306;28;20035;-69
2023/05/14 07:17:34;;;;;;;18.17;8.27;;;13.10;99.90;;;;;;4989754;28;20408;-69
2023/05/14 07:19:59;;;;;;;15.45;7.93;;;13.60;99.90;;;;;;4979851;28;20093;-69
2023/05/14 07:22:25;;;;;;;14.95;8.10;;;13.40;99.90;;;;;;4985270;28;20503;-69
2023/05/14 07:24:51;;;;;;;17.38;9.10;;;14.30;99.90;;;;;;4989662;28;20049;-69
2023/05/14 07:27:16;;;;;;;17.25;8.35;;;13.50;99.90;;;;;;4983681;28;20050;-69
2023/05/14 07:29:43;;;;;;;14.13;7.78;;;13.60;99.90;;;;;;4973172;28;20050;-69
2023/05/14 07:32:09;;;;;;;18.58;8.15;;;13.50;99.90;;;;;;4971586;28;20039;-69
2023/05/14 07:34:34;;;;;;;19.08;8.38;;;13.40;99.90;;;;;;4985684;28;20038;-69
2023/05/14 07:37:01;;;;;;;22.63;7.88;;;;;;;;;;4989229;28;20146;-69
2023/05/14 07:39:27;;;;;;;19.98;9.25;;;14.00;99.90;;;;;;5002502;28;20038;-69
2023/05/14 07:41:53;;;;;;;17.20;7.88;;;13.80;99.90;;;;;;4976217;28;20035;-69
2023/05/14 07:44:19;;;;;;;16.73;8.32;;;;;;;;;;4978409;28;20042;-69
2023/05/14 07:46:45;;;;;;;14.88;8.18;;;13.70;24.30;;;;;;4982628;28;20452;-69
2023/05/14 07:49:11;;;;;;;21.15;8.95;;;13.70;1.00;;;;;;4982055;28;20039;-69
2023/05/14 07:51:37;;;;;;;19.70;8.95;;;13.70;99.90;;;;;;4990188;28;20042;-69
2023/05/14 07:54:03;;;;;;;19.45;9.25;;;13.90;1.00;;;;;;4992853;28;20105;-69
2023/05/14 07:56:29;;;;;;;23.77;10.15;;;14.40;1.00;;;;;;4989399;28;20426;-69
2023/05/14 07:58:55;;;;;;;16.60;8.70;;;14.60;14.60;;;;;;4989502;28;20415;-69
2023/05/14 08:01:21;;;;;;;17.05;8.50;;;14.20;99.90;;;;;;4969694;28;20039;-69
2023/05/14 08:03:47;;;;;;;25.58;8.98;;;14.50;99.90;;;;;;4946489;28;20481;-69
2023/05/14 08:06:12;;;;;;;22.15;8.77;;;14.10;99.90;;;;;;4982481;28;20050;-69
2023/05/14 08:08:38;;;;;;;19.45;8.40;;;14.60;99.90;;;;;;4978983;28;20076;-68
2023/05/14 08:11:04;;;;;;;17.88;8.23;;;14.60;99.90;;;;;;4968009;28;20053;-69
2023/05/14 08:13:30;;;;;;;19.30;8.88;;;14.10;99.90;;;;;;4981712;28;20572;-69
2023/05/14 08:15:55;;;;;;;16.20;7.18;;;14.40;1.00;;;;;;4982536;28;20508;-69
2023/05/14 08:18:21;;;;;;;13.30;7.85;;;14.30;99.90;;;;;;4981906;28;20043;-69
2023/05/14 08:20:47;;;;;;;21.02;9.15;;;14.90;1.00;;;;;;4981264;28;20053;-69
2023/05/14 08:23:13;;;;;;;21.45;9.27;;;14.50;1.00;;;;;;4981736;28;20042;-69
2023/05/14 08:25:39;;;;;;;20.95;8.55;;;14.30;1.00;;;;;;4984630;28;20049;-69
2023/05/14 08:28:04;;;;;;;15.23;8.63;;;15.10;56.30;;;;;;4982294;28;20034;-69
2023/05/14 08:30:30;;;;;;;19.92;8.90;;;13.90;99.90;;;;;;4987891;28;20121;-69
2023/05/14 08:32:57;;;;;;;18.02;8.63;;;14.80;99.90;;;;;;4978472;28;20039;-69
2023/05/14 08:35:23;;;;;;;13.75;8.20;;;14.70;99.90;;;;;;4984269;28;20690;-69
2023/05/14 08:37:49;;;;;;;18.10;9.07;;;13.80;1.00;;;;;;4979909;28;22971;-69
2023/05/14 08:40:15;;;;;;;15.93;8.93;;;14.20;99.90;;;;;;4979482;28;20045;-69
2023/05/14 08:42:42;;;;;;;17.40;8.88;;;14.70;1.00;;;;;;4982760;28;20049;-69
2023/05/14 08:45:16;;;;;;;24.40;9.63;;;13.90;1.00;;;;;;4977013;28;20077;-69
2023/05/14 08:47:46;;;;;;;14.77;9.05;;;13.80;99.90;;;;;;4985763;28;20423;-69
2023/05/14 08:50:11;;;;;;;14.55;8.43;;;14.30;99.90;;;;;;4981265;28;20182;-69
2023/05/14 08:52:38;;;;;;;19.55;9.32;;;13.90;99.90;;;;;;4985339;28;20162;-69
2023/05/14 08:55:05;;;;;;;17.45;8.55;;;;;;;;;;4980298;28;20105;-69
2023/05/14 08:57:32;;;;;;;17.02;8.40;;;14.90;99.90;;;;;;4980274;28;20508;-69
2023/05/14 08:59:57;;;;;;;17.38;8.63;;;14.60;99.90;;;;;;4982755;28;20043;-69
2023/05/14 09:02:31;;;;;;;14.23;8.00;;;14.00;99.90;;;;;;4979363;28;20049;-69
2023/05/14 09:04:58;;;;;;;17.08;8.70;;;14.70;99.90;;;;;;4983987;28;20038;-69
2023/05/14 09:07:24;;;;;;;17.20;8.35;;;14.70;99.90;;;;;;4975140;28;20094;-68
2023/05/14 09:09:51;;;;;;;15.68;8.20;;;;;;;;;;4982968;28;20034;-68
2023/05/14 09:12:17;;;;;;;18.38;7.72;;;14.10;99.90;;;;;;4983304;28;20399;-68
2023/05/14 09:14:44;;;;;;;15.52;8.35;;;13.90;99.90;;;;;;4980716;28;20134;-68
2023/05/14 09:17:11;;;;;;;15.45;8.05;;;;;;;;;;4979917;28;20030;-68
2023/05/14 09:19:40;;;;;;;15.57;8.38;;;14.20;99.90;;;;;;4973152;28;20535;-68
2023/05/14 09:22:12;;;;;;;17.55;8.20;;;14.70;99.90;;;;;;4977257;28;20030;-67
2023/05/14 09:24:38;;;;;;;14.50;8.05;;;14.30;99.90;;;;;;4988703;28;20073;-68
2023/05/14 09:27:05;;;;;;;16.73;8.02;;;14.10;99.90;;;;;;4996896;28;20039;-68
2023/05/14 09:29:32;;;;;;;14.68;7.30;;;15.00;99.90;;;;;;4991159;28;20046;-68
2023/05/14 09:31:59;;;;;;;14.13;7.38;;;14.80;99.90;;;;;;4996918;28;20084;-68
2023/05/14 09:34:29;;;;;;;15.00;8.00;;;14.60;1.00;;;;;;4995036;28;20477;-68
2023/05/14 09:37:06;;;;;;;15.30;7.30;;;15.10;99.90;;;;;;4991736;28;20030;-68
2023/05/14 09:39:32;;;;;;;11.90;7.30;;;14.90;99.90;;;;;;4992247;28;20361;-68
2023/05/14 09:41:58;;;;;;;14.30;7.40;;;15.10;99.90;;;;;;4993248;28;20042;-68
2023/05/14 09:44:24;;;;;;;14.60;7.90;;;15.40;1.00;;;;;;4991096;28;20161;-68
2023/05/14 09:46:51;;;;;;;16.98;8.20;;;15.10;76.00;;;;;;4992880;28;20531;-68
2023/05/14 09:49:17;;;;;;;17.02;8.05;;;15.50;14.10;;;;;;4992296;28;20092;-68
2023/05/14 09:51:43;;;;;;;12.38;6.85;;;15.50;1.00;;;;;;4992765;28;20065;-68
2023/05/14 09:54:09;;;;;;;16.40;6.65;;;15.80;1.00;;;;;;4991695;28;20492;-68
2023/05/14 09:56:36;;;;;;;10.88;6.40;;;15.50;1.00;;;;;;4991385;28;20038;-68
2023/05/14 09:59:02;;;;;;;13.25;6.95;;;15.20;99.90;;;;;;4992690;28;20100;-68
2023/05/14 10:01:29;;;;;;;12.73;7.63;;;15.40;1.00;;;;;;4992577;28;20045;-68
2023/05/14 10:03:55;;;;;;;13.02;8.25;;;15.70;1.00;;;;;;4986347;28;20481;-68
2023/05/14 10:06:26;;;;;;;16.38;7.65;;;15.70;1.00;;;;;;4991359;28;20113;-68
2023/05/14 10:08:59;;;;;;;10.18;6.45;;;16.50;99.90;;;;;;4990530;28;20424;-68
2023/05/14 10:11:35;;;;;;;11.30;6.75;;;16.30;1.00;;;;;;4992355;28;20070;-68
2023/05/14 10:14:06;;;;;;;15.50;8.68;;;16.50;1.00;;;;;;4990767;28;20053;-68
2023/05/14 10:16:42;;;;;;;15.95;8.10;;;16.40;99.90;;;;;;4991658;28;20038;-67
2023/05/14 10:19:10;;;;;;;15.23;7.55;;;16.50;1.00;;;;;;4990967;28;20132;-67
2023/05/14 10:21:37;;;;;;;14.65;8.02;;;16.20;99.90;;;;;;4992559;28;20524;-67
2023/05/14 10:24:04;;;;;;;11.32;6.80;;;15.70;99.90;;;;;;4992631;28;20038;-67
2023/05/14 10:26:31;;;;;;;15.57;8.00;;;16.00;1.00;;;;;;4991125;28;20046;-67
2023/05/14 10:28:58;;;;;;;15.95;8.63;;;16.80;99.90;;;;;;4991766;28;20056;-67
2023/05/14 10:31:47;;;;;;;19.08;8.15;;;15.90;99.90;;;;;;4992378;28;20049;-67
2023/05/14 10:34:42;;;;;;;13.25;7.60;;;15.00;99.90;;;;;;4981056;28;20054;-67
2023/05/14 10:37:14;;;;;;;13.55;6.63;;;15.70;99.90;;;;;;4968070;28;20165;-67
2023/05/14 10:39:47;;;;;;;10.30;6.45;;;16.80;99.90;;;;;;4982409;28;20136;-67
2023/05/14 10:42:23;;;;;;;16.67;9.38;;;16.70;99.90;;;;;;4975397;28;20081;-67
2023/05/14 10:44:51;;;;;;;16.10;8.43;;;16.90;68.60;;;;;;4982454;28;20061;-67
2023/05/14 10:47:17;;;;;;;14.90;7.90;;;16.50;99.90;;;;;;4985869;28;20177;-67
2023/05/14 10:49:47;;;;;;;14.88;8.48;;;17.30;1.00;;;;;;4968510;28;20121;-67
2023/05/14 10:52:16;;;;;;;15.13;7.45;;;17.20;1.00;;;;;;4980695;28;20514;-67
2023/05/14 10:54:56;;;;;;;14.82;8.50;;;17.60;1.00;;;;;;4988482;28;20049;-67
2023/05/14 10:57:25;;;;;;;13.30;8.38;;;17.20;1.00;;;;;;4986995;28;20496;-67
2023/05/14 10:59:53;;;;;;;15.23;8.65;;;17.90;1.00;;;;;;4986740;28;20114;-66
2023/05/14 11:02:26;;;;;;;19.52;9.00;;;17.40;1.00;;;;;;4973589;28;20144;-67
2023/05/14 11:05:02;;;;;;;13.75;7.63;;;17.40;1.00;;;;;;4982780;28;20039;-67
2023/05/14 11:07:40;;;;;;;13.85;8.00;;;17.40;1.00;;;;;;4986311;28;20377;-66
2023/05/14 11:10:09;;;;;;;12.70;8.02;;;17.30;99.90;;;;;;4985625;28;20110;-66
2023/05/14 11:12:37;;;;;;;13.63;8.73;;;17.40;99.90;;;;;;4983328;28;20057;-66
2023/05/14 11:15:09;;;;;;;11.88;7.63;;;17.80;99.90;;;;;;4983302;28;20068;-66
2023/05/14 11:17:36;;;;;;;13.30;9.35;;;17.50;99.90;;;;;;4982532;28;20072;-66
2023/05/14 11:20:02;;;;;;;12.90;8.80;;;18.10;99.90;;;;;;4981408;28;20038;-66
2023/05/14 11:22:28;;;;;;;13.23;7.70;;;18.20;99.90;;;;;;4994240;28;20097;-66
2023/05/14 11:24:53;;;;;;;13.32;7.28;;;18.40;99.90;;;;;;4990062;28;20094;-66
2023/05/14 11:27:21;;;;;;;14.70;8.70;;;18.00;90.50;;;;;;4986430;28;20065;-66
2023/05/14 11:29:47;;;;;;;11.90;7.95;;;18.10;58.20;;;;;;4983727;28;20177;-66
2023/05/14 11:32:14;;;;;;;15.57;9.63;;;18.60;1.00;;;;;;4977025;28;20054;-66
2023/05/14 11:34:41;;;;;;;12.52;8.18;;;18.00;1.00;;;;;;4989936;28;20042;-66
2023/05/14 11:37:09;;;;;;;14.40;8.82;;;18.20;1.00;;;;;;4985356;28;20035;-66
2023/05/14 11:39:36;;;;;;;16.20;7.90;;;18.80;1.00;;;;;;4984007;28;20057;-65
2023/05/14 11:42:13;;;;;;;14.20;9.60;;;19.00;1.00;;;;;;4989344;28;20042;-65
2023/05/14 11:44:40;;;;;;;12.57;8.40;;;18.90;99.90;;;;;;4988587;28;20048;-65
2023/05/14 11:47:06;;;;;;;13.48;7.03;;;18.80;99.90;;;;;;4990175;28;20104;-65
2023/05/14 11:49:34;;;;;;;14.27;8.65;;;18.90;99.90;;;;;;4988753;28;20121;-65
2023/05/14 11:52:01;;;;;;;12.85;7.70;;;18.90;99.90;;;;;;4990373;28;20030;-65
2023/05/14 11:54:28;;;;;;;14.45;7.47;;;19.60;99.90;;;;;;4988911;28;20045;-65
2023/05/14 11:56:55;;;;;;;12.20;6.90;;;19.10;99.90;;;;;;4989415;28;20038;-65
2023/05/14 11:59:24;;;;;;;14.40;7.60;;;19.70;99.90;;;;;;4984642;28;20113;-65
2023/05/14 12:01:51;;;;;;;12.32;7.13;;;19.90;99.90;;;;;;4988121;28;20035;-65
2023/05/14 12:04:21;;;;;;;14.45;8.07;;;20.30;99.90;;;;;;4988725;28;20038;-66
2023/05/14 12:06:48;;;;;;;13.43;8.13;;;20.30;99.90;;;;;;4988409;28;20034;-65
2023/05/14 12:09:16;;;;;;;10.95;6.15;;;20.40;99.90;;;;;;4989565;28;20044;-65
2023/05/14 12:11:43;;;;;;;13.07;8.38;;;20.60;66.50;;;;;;4988639;28;20125;-65
2023/05/14 12:14:11;;;;;;;13.15;7.97;;;21.20;35.60;;;;;;4986408;28;20049;-65
2023/05/14 12:16:39;;;;;;;17.48;9.07;;;21.20;46.60;;;;;;4986264;28;20042;-65
2023/05/14 12:19:04;;;;;;;12.27;7.80;;;21.50;1.00;;;;;;4989464;28;20034;-66
2023/05/14 12:21:30;;;;;;;12.18;7.30;;;21.30;1.00;;;;;;4989417;28;20046;-66
2023/05/14 12:23:58;;;;;;;15.27;7.25;;;21.60;1.00;;;;;;4988580;28;20479;-66
2023/05/14 12:26:25;;;;;;;12.77;7.40;;;22.80;1.00;;;;;;4987764;28;20093;-65
2023/05/14 12:28:59;;;;;;;12.63;7.05;;;22.90;99.90;;;;;;4987539;28;20105;-66
2023/05/14 12:31:32;;;;;;;11.50;6.45;;;23.70;99.90;;;;;;4989482;28;20039;-66
2023/05/14 12:33:57;;;;;;;11.50;6.60;;;24.50;99.90;;;;;;4988244;28;20104;-66
2023/05/14 12:36:23;;;;;;;13.48;6.35;;;26.40;99.90;;;;;;4986924;28;20649;-66
2023/05/14 12:38:50;;;;;;;9.25;5.57;;;27.40;99.90;;;;;;4994016;28;20065;-66
2023/05/14 12:41:17;;;;;;;9.63;4.97;;;28.40;79.20;;;;;;4986484;28;20381;-67
2023/05/14 12:43:43;;;;;;;14.07;6.43;;;29.00;50.30;;;;;;4987318;28;20042;-66
2023/05/14 12:46:09;;;;;;;7.85;4.45;;;30.70;33.50;;;;;;4989145;28;20471;-66
2023/05/14 12:48:35;;;;;;;13.75;6.53;;;31.00;11.40;;;;;;4970699;28;20050;-67
2023/05/14 12:51:00;;;;;;;9.05;4.80;;;30.90;6.50;;;;;;4988108;28;20468;-66
2023/05/14 12:53:26;;;;;;;9.15;5.18;;;31.50;1.00;;;;;;4987627;28;20034;-67
2023/05/14 12:55:53;;;;;;;11.70;6.72;;;31.90;1.00;;;;;;4989751;28;20407;-66
2023/05/14 12:58:19;;;;;;;11.90;6.85;;;31.80;1.00;;;;;;4989467;28;20169;-66